sensor_id;sensor_type;location;lat;lon;timestamp;P1;durP1;ratioP1;P2;durP2;ratioP2
1725;SDS011;41776;48.260;8.928;2023-02-01T00:00:49;3.27;;;1.60;;
1725;SDS011;41776;48.260;8.928;2023-02-01T00:03:16;2.43;;;1.67;;
1725;SDS011;41776;48.260;8.928;2023-02-01T00:05:45;2.50;;;1.90;;
1725;SDS011;41776;48.260;8.928;2023-02-01T00:08:20;2.57;;;1.67;;
1725;SDS011;41776;48.260;8.928;2023-02-01T00:10:47;2.07;;;1.60;;
1725;SDS011;41776;48.260;8.928;2023-02-01T00:13:13;3.10;;;1.40;;
1725;SDS011;41776;48.260;8.928;2023-02-01T00:15:40;2.70;;;1.70;;
1725;SDS011;41776;48.260;8.928;2023-02-01T00:18:06;2.03;;;1.40;;
1725;SDS011;41776;48.260;8.928;2023-02-01T00:20:32;2.80;;;1.60;;
1725;SDS011;41776;48.260;8.928;2023-02-01T00:23:00;2.77;;;1.40;;
1725;SDS011;41776;48.260;8.928;2023-02-01T00:25:27;1.47;;;1.33;;
1725;SDS011;41776;48.260;8.928;2023-02-01T00:27:53;1.83;;;1.30;;
1725;SDS011;41776;48.260;8.928;2023-02-01T00:30:21;2.07;;;1.30;;
1725;SDS011;41776;48.260;8.928;2023-02-01T00:32:48;2.07;;;1.60;;
1725;SDS011;41776;48.260;8.928;2023-02-01T00:35:14;1.60;;;1.23;;
1725;SDS011;41776;48.260;8.928;2023-02-01T00:37:41;2.40;;;1.30;;
1725;SDS011;41776;48.260;8.928;2023-02-01T00:40:09;2.40;;;1.53;;
1725;SDS011;41776;48.260;8.928;2023-02-01T00:42:36;1.57;;;1.10;;
1725;SDS011;41776;48.260;8.928;2023-02-01T00:45:03;1.83;;;1.10;;
1725;SDS011;41776;48.260;8.928;2023-02-01T00:47:30;1.43;;;1.10;;
1725;SDS011;41776;48.260;8.928;2023-02-01T00:49:56;1.10;;;1.00;;
1725;SDS011;41776;48.260;8.928;2023-02-01T00:52:23;2.00;;;1.20;;
1725;SDS011;41776;48.260;8.928;2023-02-01T00:54:49;2.87;;;1.23;;
1725;SDS011;41776;48.260;8.928;2023-02-01T00:57:17;1.50;;;0.93;;
1725;SDS011;41776;48.260;8.928;2023-02-01T00:59:44;1.63;;;1.20;;
1725;SDS011;41776;48.260;8.928;2023-02-01T01:02:10;1.73;;;1.10;;
1725;SDS011;41776;48.260;8.928;2023-02-01T01:04:39;3.13;;;1.13;;
1725;SDS011;41776;48.260;8.928;2023-02-01T01:07:05;1.67;;;1.40;;
1725;SDS011;41776;48.260;8.928;2023-02-01T01:09:32;2.53;;;1.20;;
1725;SDS011;41776;48.260;8.928;2023-02-01T01:11:58;1.20;;;1.00;;
1725;SDS011;41776;48.260;8.928;2023-02-01T01:14:28;1.43;;;1.17;;
1725;SDS011;41776;48.260;8.928;2023-02-01T01:16:55;1.30;;;1.17;;
1725;SDS011;41776;48.260;8.928;2023-02-01T01:19:21;2.83;;;1.40;;
1725;SDS011;41776;48.260;8.928;2023-02-01T01:21:48;1.20;;;1.10;;
1725;SDS011;41776;48.260;8.928;2023-02-01T01:24:14;1.23;;;1.03;;
1725;SDS011;41776;48.260;8.928;2023-02-01T01:26:41;1.70;;;1.27;;
1725;SDS011;41776;48.260;8.928;2023-02-01T01:29:08;2.07;;;1.00;;
1725;SDS011;41776;48.260;8.928;2023-02-01T01:31:36;1.83;;;1.13;;
1725;SDS011;41776;48.260;8.928;2023-02-01T01:34:03;2.43;;;1.47;;
1725;SDS011;41776;48.260;8.928;2023-02-01T01:36:29;2.77;;;1.40;;
1725;SDS011;41776;48.260;8.928;2023-02-01T01:38:56;1.73;;;1.33;;
1725;SDS011;41776;48.260;8.928;2023-02-01T01:41:24;2.23;;;1.50;;
1725;SDS011;41776;48.260;8.928;2023-02-01T01:43:52;1.80;;;1.40;;
1725;SDS011;41776;48.260;8.928;2023-02-01T01:46:22;3.00;;;1.40;;
1725;SDS011;41776;48.260;8.928;2023-02-01T01:48:52;1.97;;;1.30;;
1725;SDS011;41776;48.260;8.928;2023-02-01T01:51:23;3.13;;;1.70;;
1725;SDS011;41776;48.260;8.928;2023-02-01T01:53:54;2.80;;;1.77;;
1725;SDS011;41776;48.260;8.928;2023-02-01T01:56:25;1.97;;;1.50;;
1725;SDS011;41776;48.260;8.928;2023-02-01T01:58:54;2.27;;;1.50;;
1725;SDS011;41776;48.260;8.928;2023-02-01T02:01:21;2.63;;;1.40;;
1725;SDS011;41776;48.260;8.928;2023-02-01T02:03:49;1.67;;;1.40;;
1725;SDS011;41776;48.260;8.928;2023-02-01T02:06:19;2.07;;;1.37;;
1725;SDS011;41776;48.260;8.928;2023-02-01T02:08:54;3.10;;;1.20;;
1725;SDS011;41776;48.260;8.928;2023-02-01T02:11:20;1.90;;;1.50;;
1725;SDS011;41776;48.260;8.928;2023-02-01T02:13:48;2.17;;;1.37;;
1725;SDS011;41776;48.260;8.928;2023-02-01T02:16:24;1.40;;;1.13;;
1725;SDS011;41776;48.260;8.928;2023-02-01T02:19:10;1.40;;;1.10;;
1725;SDS011;41776;48.260;8.928;2023-02-01T02:22:10;1.20;;;1.00;;
1725;SDS011;41776;48.260;8.928;2023-02-01T02:25:00;1.17;;;1.00;;
1725;SDS011;41776;48.260;8.928;2023-02-01T02:27:43;1.60;;;1.23;;
1725;SDS011;41776;48.260;8.928;2023-02-01T02:36:14;1.13;;;1.03;;
1725;SDS011;41776;48.260;8.928;2023-02-01T02:38:47;0.93;;;0.93;;
1725;SDS011;41776;48.260;8.928;2023-02-01T02:41:20;2.40;;;1.30;;
1725;SDS011;41776;48.260;8.928;2023-02-01T02:44:12;1.83;;;1.20;;
1725;SDS011;41776;48.260;8.928;2023-02-01T02:47:06;3.60;;;1.13;;
1725;SDS011;41776;48.260;8.928;2023-02-01T02:49:55;3.03;;;1.40;;
1725;SDS011;41776;48.260;8.928;2023-02-01T02:52:48;1.67;;;1.37;;
1725;SDS011;41776;48.260;8.928;2023-02-01T02:55:37;4.53;;;1.40;;
1725;SDS011;41776;48.260;8.928;2023-02-01T02:58:05;2.13;;;1.20;;
1725;SDS011;41776;48.260;8.928;2023-02-01T03:00:51;2.70;;;1.70;;
1725;SDS011;41776;48.260;8.928;2023-02-01T03:03:36;1.53;;;1.40;;
1725;SDS011;41776;48.260;8.928;2023-02-01T03:06:23;1.43;;;1.17;;
1725;SDS011;41776;48.260;8.928;2023-02-01T03:08:51;2.20;;;1.47;;
1725;SDS011;41776;48.260;8.928;2023-02-01T03:11:23;2.10;;;1.60;;
1725;SDS011;41776;48.260;8.928;2023-02-01T03:14:11;2.63;;;1.60;;
1725;SDS011;41776;48.260;8.928;2023-02-01T03:16:40;2.27;;;1.50;;
1725;SDS011;41776;48.260;8.928;2023-02-01T03:19:14;3.07;;;1.40;;
1725;SDS011;41776;48.260;8.928;2023-02-01T03:21:48;2.50;;;1.43;;
1725;SDS011;41776;48.260;8.928;2023-02-01T03:24:20;3.17;;;1.47;;
1725;SDS011;41776;48.260;8.928;2023-02-01T03:26:58;2.60;;;1.50;;
1725;SDS011;41776;48.260;8.928;2023-02-01T03:29:29;3.13;;;1.60;;
1725;SDS011;41776;48.260;8.928;2023-02-01T03:32:01;1.57;;;1.00;;
1725;SDS011;41776;48.260;8.928;2023-02-01T03:34:27;2.00;;;1.67;;
1725;SDS011;41776;48.260;8.928;2023-02-01T03:36:56;2.23;;;1.30;;
1725;SDS011;41776;48.260;8.928;2023-02-01T03:39:27;2.53;;;1.40;;
1725;SDS011;41776;48.260;8.928;2023-02-01T03:41:59;3.60;;;1.83;;
1725;SDS011;41776;48.260;8.928;2023-02-01T03:44:29;2.27;;;1.70;;
1725;SDS011;41776;48.260;8.928;2023-02-01T03:47:00;3.00;;;1.37;;
1725;SDS011;41776;48.260;8.928;2023-02-01T03:49:33;2.07;;;1.43;;
1725;SDS011;41776;48.260;8.928;2023-02-01T03:52:03;1.53;;;1.03;;
1725;SDS011;41776;48.260;8.928;2023-02-01T03:54:32;1.97;;;1.53;;
1725;SDS011;41776;48.260;8.928;2023-02-01T03:57:01;1.83;;;1.30;;
1725;SDS011;41776;48.260;8.928;2023-02-01T03:59:33;1.20;;;1.10;;
1725;SDS011;41776;48.260;8.928;2023-02-01T04:01:59;1.85;;;1.30;;
1725;SDS011;41776;48.260;8.928;2023-02-01T04:04:26;1.87;;;1.30;;
1725;SDS011;41776;48.260;8.928;2023-02-01T04:06:52;1.20;;;1.10;;
1725;SDS011;41776;48.260;8.928;2023-02-01T04:09:20;1.30;;;1.00;;
1725;SDS011;41776;48.260;8.928;2023-02-01T04:11:46;1.80;;;1.10;;
1725;SDS011;41776;48.260;8.928;2023-02-01T04:14:13;4.20;;;1.37;;
1725;SDS011;41776;48.260;8.928;2023-02-01T04:16:39;1.40;;;1.20;;
1725;SDS011;41776;48.260;8.928;2023-02-01T04:19:06;1.20;;;1.10;;
1725;SDS011;41776;48.260;8.928;2023-02-01T04:21:32;1.70;;;1.10;;
1725;SDS011;41776;48.260;8.928;2023-02-01T04:23:59;1.83;;;1.40;;
1725;SDS011;41776;48.260;8.928;2023-02-01T04:26:26;2.83;;;1.63;;
1725;SDS011;41776;48.260;8.928;2023-02-01T04:28:53;2.73;;;1.37;;
1725;SDS011;41776;48.260;8.928;2023-02-01T04:31:19;2.40;;;1.50;;
1725;SDS011;41776;48.260;8.928;2023-02-01T04:33:50;1.63;;;1.17;;
1725;SDS011;41776;48.260;8.928;2023-02-01T04:36:17;2.53;;;1.90;;
1725;SDS011;41776;48.260;8.928;2023-02-01T04:38:44;1.47;;;1.37;;
1725;SDS011;41776;48.260;8.928;2023-02-01T04:41:11;2.07;;;1.60;;
1725;SDS011;41776;48.260;8.928;2023-02-01T04:43:39;5.67;;;1.90;;
1725;SDS011;41776;48.260;8.928;2023-02-01T04:46:05;2.07;;;1.40;;
1725;SDS011;41776;48.260;8.928;2023-02-01T04:48:31;2.80;;;1.40;;
1725;SDS011;41776;48.260;8.928;2023-02-01T04:50:58;2.38;;;1.80;;
1725;SDS011;41776;48.260;8.928;2023-02-01T04:53:24;1.87;;;1.57;;
1725;SDS011;41776;48.260;8.928;2023-02-01T04:55:51;2.93;;;1.83;;
1725;SDS011;41776;48.260;8.928;2023-02-01T04:58:18;4.90;;;2.03;;
1725;SDS011;41776;48.260;8.928;2023-02-01T05:00:45;3.07;;;2.00;;
1725;SDS011;41776;48.260;8.928;2023-02-01T05:03:12;4.07;;;2.13;;
1725;SDS011;41776;48.260;8.928;2023-02-01T05:05:38;2.90;;;1.63;;
1725;SDS011;41776;48.260;8.928;2023-02-01T05:08:05;4.77;;;2.23;;
1725;SDS011;41776;48.260;8.928;2023-02-01T05:10:31;5.73;;;2.10;;
1725;SDS011;41776;48.260;8.928;2023-02-01T05:12:58;3.60;;;2.00;;
1725;SDS011;41776;48.260;8.928;2023-02-01T05:15:42;3.13;;;1.67;;
1725;SDS011;41776;48.260;8.928;2023-02-01T05:18:12;2.07;;;1.57;;
1725;SDS011;41776;48.260;8.928;2023-02-01T05:20:38;3.67;;;2.33;;
1725;SDS011;41776;48.260;8.928;2023-02-01T05:23:05;3.77;;;1.63;;
1725;SDS011;41776;48.260;8.928;2023-02-01T05:25:31;4.77;;;1.80;;
1725;SDS011;41776;48.260;8.928;2023-02-01T05:27:58;4.17;;;2.60;;
1725;SDS011;41776;48.260;8.928;2023-02-01T05:30:24;3.50;;;1.70;;
1725;SDS011;41776;48.260;8.928;2023-02-01T05:32:51;1.97;;;1.53;;
1725;SDS011;41776;48.260;8.928;2023-02-01T05:35:19;1.60;;;1.20;;
1725;SDS011;41776;48.260;8.928;2023-02-01T05:37:46;1.37;;;1.27;;
1725;SDS011;41776;48.260;8.928;2023-02-01T05:40:12;3.77;;;1.47;;
1725;SDS011;41776;48.260;8.928;2023-02-01T05:42:39;2.37;;;1.23;;
1725;SDS011;41776;48.260;8.928;2023-02-01T05:45:06;1.50;;;1.20;;
1725;SDS011;41776;48.260;8.928;2023-02-01T05:47:33;1.20;;;1.10;;
1725;SDS011;41776;48.260;8.928;2023-02-01T05:50:00;3.40;;;1.63;;
1725;SDS011;41776;48.260;8.928;2023-02-01T05:52:27;2.53;;;1.60;;
1725;SDS011;41776;48.260;8.928;2023-02-01T05:54:54;1.57;;;1.47;;
1725;SDS011;41776;48.260;8.928;2023-02-01T05:57:20;2.70;;;1.30;;
1725;SDS011;41776;48.260;8.928;2023-02-01T05:59:47;3.57;;;1.80;;
1725;SDS011;41776;48.260;8.928;2023-02-01T06:02:13;2.40;;;1.33;;
1725;SDS011;41776;48.260;8.928;2023-02-01T06:04:40;4.40;;;2.03;;
1725;SDS011;41776;48.260;8.928;2023-02-01T06:07:06;2.10;;;1.20;;
1725;SDS011;41776;48.260;8.928;2023-02-01T06:09:35;1.13;;;1.03;;
1725;SDS011;41776;48.260;8.928;2023-02-01T06:12:02;1.93;;;1.23;;
1725;SDS011;41776;48.260;8.928;2023-02-01T06:14:29;2.57;;;1.60;;
1725;SDS011;41776;48.260;8.928;2023-02-01T06:16:55;1.90;;;1.30;;
1725;SDS011;41776;48.260;8.928;2023-02-01T06:19:22;1.30;;;1.20;;
1725;SDS011;41776;48.260;8.928;2023-02-01T06:21:48;2.63;;;1.00;;
1725;SDS011;41776;48.260;8.928;2023-02-01T06:24:15;3.23;;;1.60;;
1725;SDS011;41776;48.260;8.928;2023-02-01T06:26:43;2.63;;;1.30;;
1725;SDS011;41776;48.260;8.928;2023-02-01T06:29:10;2.70;;;1.20;;
1725;SDS011;41776;48.260;8.928;2023-02-01T06:31:37;3.20;;;1.03;;
1725;SDS011;41776;48.260;8.928;2023-02-01T06:34:03;1.40;;;1.00;;
1725;SDS011;41776;48.260;8.928;2023-02-01T06:36:29;1.47;;;1.20;;
1725;SDS011;41776;48.260;8.928;2023-02-01T06:38:56;1.57;;;1.07;;
1725;SDS011;41776;48.260;8.928;2023-02-01T06:41:24;1.73;;;1.33;;
1725;SDS011;41776;48.260;8.928;2023-02-01T06:43:52;1.40;;;1.30;;
1725;SDS011;41776;48.260;8.928;2023-02-01T06:46:18;4.37;;;1.40;;
1725;SDS011;41776;48.260;8.928;2023-02-01T06:48:44;2.53;;;1.60;;
1725;SDS011;41776;48.260;8.928;2023-02-01T06:51:18;2.67;;;1.87;;
1725;SDS011;41776;48.260;8.928;2023-02-01T06:53:46;2.63;;;1.60;;
1725;SDS011;41776;48.260;8.928;2023-02-01T06:56:13;4.80;;;2.13;;
1725;SDS011;41776;48.260;8.928;2023-02-01T06:58:39;2.80;;;1.70;;
1725;SDS011;41776;48.260;8.928;2023-02-01T07:01:07;2.80;;;1.60;;
1725;SDS011;41776;48.260;8.928;2023-02-01T07:03:35;2.53;;;1.50;;
1725;SDS011;41776;48.260;8.928;2023-02-01T07:06:02;3.07;;;1.67;;
1725;SDS011;41776;48.260;8.928;2023-02-01T07:08:29;4.83;;;2.67;;
1725;SDS011;41776;48.260;8.928;2023-02-01T07:10:56;2.13;;;1.63;;
1725;SDS011;41776;48.260;8.928;2023-02-01T07:13:26;2.93;;;1.67;;
1725;SDS011;41776;48.260;8.928;2023-02-01T07:15:53;1.67;;;1.50;;
1725;SDS011;41776;48.260;8.928;2023-02-01T07:18:20;2.90;;;1.63;;
1725;SDS011;41776;48.260;8.928;2023-02-01T07:20:49;8.03;;;2.03;;
1725;SDS011;41776;48.260;8.928;2023-02-01T07:23:16;3.00;;;1.90;;
1725;SDS011;41776;48.260;8.928;2023-02-01T07:25:42;4.60;;;1.70;;
1725;SDS011;41776;48.260;8.928;2023-02-01T07:28:09;3.87;;;2.10;;
1725;SDS011;41776;48.260;8.928;2023-02-01T07:30:35;3.00;;;2.10;;
1725;SDS011;41776;48.260;8.928;2023-02-01T07:33:02;2.43;;;1.73;;
1725;SDS011;41776;48.260;8.928;2023-02-01T07:35:29;6.70;;;3.30;;
1725;SDS011;41776;48.260;8.928;2023-02-01T07:37:57;3.37;;;2.53;;
1725;SDS011;41776;48.260;8.928;2023-02-01T07:40:24;3.37;;;2.00;;
1725;SDS011;41776;48.260;8.928;2023-02-01T07:42:53;5.10;;;3.20;;
1725;SDS011;41776;48.260;8.928;2023-02-01T07:45:20;4.90;;;2.77;;
1725;SDS011;41776;48.260;8.928;2023-02-01T07:47:46;4.87;;;2.03;;
1725;SDS011;41776;48.260;8.928;2023-02-01T07:50:13;2.80;;;2.20;;
1725;SDS011;41776;48.260;8.928;2023-02-01T07:52:41;5.47;;;2.30;;
1725;SDS011;41776;48.260;8.928;2023-02-01T07:55:08;4.40;;;2.80;;
1725;SDS011;41776;48.260;8.928;2023-02-01T07:57:35;4.03;;;2.47;;
1725;SDS011;41776;48.260;8.928;2023-02-01T08:00:02;2.73;;;1.50;;
1725;SDS011;41776;48.260;8.928;2023-02-01T08:02:46;6.90;;;2.07;;
1725;SDS011;41776;48.260;8.928;2023-02-01T08:05:13;3.00;;;2.13;;
1725;SDS011;41776;48.260;8.928;2023-02-01T08:07:39;2.70;;;1.70;;
1725;SDS011;41776;48.260;8.928;2023-02-01T08:10:07;2.17;;;1.70;;
1725;SDS011;41776;48.260;8.928;2023-02-01T08:12:36;3.77;;;1.70;;
1725;SDS011;41776;48.260;8.928;2023-02-01T08:15:03;3.00;;;1.70;;
1725;SDS011;41776;48.260;8.928;2023-02-01T08:17:30;3.87;;;2.00;;
1725;SDS011;41776;48.260;8.928;2023-02-01T08:19:57;3.80;;;1.50;;
1725;SDS011;41776;48.260;8.928;2023-02-01T08:22:23;3.93;;;1.90;;
1725;SDS011;41776;48.260;8.928;2023-02-01T08:24:50;1.77;;;1.43;;
1725;SDS011;41776;48.260;8.928;2023-02-01T08:27:18;3.73;;;2.00;;
1725;SDS011;41776;48.260;8.928;2023-02-01T08:29:44;3.30;;;2.17;;
1725;SDS011;41776;48.260;8.928;2023-02-01T08:32:10;5.40;;;2.23;;
1725;SDS011;41776;48.260;8.928;2023-02-01T08:34:37;4.07;;;2.37;;
1725;SDS011;41776;48.260;8.928;2023-02-01T08:37:03;3.67;;;2.33;;
1725;SDS011;41776;48.260;8.928;2023-02-01T08:39:32;5.57;;;2.60;;
1725;SDS011;41776;48.260;8.928;2023-02-01T08:41:58;4.40;;;2.30;;
1725;SDS011;41776;48.260;8.928;2023-02-01T08:44:44;11.60;;;3.07;;
1725;SDS011;41776;48.260;8.928;2023-02-01T08:47:12;5.70;;;3.13;;
1725;SDS011;41776;48.260;8.928;2023-02-01T08:49:38;10.20;;;3.37;;
1725;SDS011;41776;48.260;8.928;2023-02-01T08:52:05;5.73;;;2.77;;
1725;SDS011;41776;48.260;8.928;2023-02-01T08:54:31;4.30;;;2.67;;
1725;SDS011;41776;48.260;8.928;2023-02-01T08:56:57;4.43;;;2.23;;
1725;SDS011;41776;48.260;8.928;2023-02-01T08:59:24;5.53;;;2.67;;
1725;SDS011;41776;48.260;8.928;2023-02-01T09:01:52;6.83;;;3.30;;
1725;SDS011;41776;48.260;8.928;2023-02-01T09:04:18;3.87;;;2.43;;
1725;SDS011;41776;48.260;8.928;2023-02-01T09:06:45;3.77;;;2.17;;
1725;SDS011;41776;48.260;8.928;2023-02-01T09:09:11;4.77;;;2.33;;
1725;SDS011;41776;48.260;8.928;2023-02-01T09:11:38;2.80;;;1.97;;
1725;SDS011;41776;48.260;8.928;2023-02-01T09:14:04;4.03;;;1.80;;
1725;SDS011;41776;48.260;8.928;2023-02-01T09:16:31;6.63;;;2.50;;
1725;SDS011;41776;48.260;8.928;2023-02-01T09:18:58;4.87;;;2.40;;
1725;SDS011;41776;48.260;8.928;2023-02-01T09:21:25;4.33;;;2.03;;
1725;SDS011;41776;48.260;8.928;2023-02-01T09:23:52;6.33;;;1.83;;
1725;SDS011;41776;48.260;8.928;2023-02-01T09:26:18;4.97;;;2.20;;
1725;SDS011;41776;48.260;8.928;2023-02-01T09:28:45;4.20;;;1.80;;
1725;SDS011;41776;48.260;8.928;2023-02-01T09:31:11;5.73;;;1.70;;
1725;SDS011;41776;48.260;8.928;2023-02-01T09:33:38;4.57;;;2.10;;
1725;SDS011;41776;48.260;8.928;2023-02-01T09:36:06;8.13;;;1.87;;
1725;SDS011;41776;48.260;8.928;2023-02-01T09:38:33;9.03;;;2.27;;
1725;SDS011;41776;48.260;8.928;2023-02-01T09:41:00;4.13;;;1.93;;
1725;SDS011;41776;48.260;8.928;2023-02-01T09:43:32;5.33;;;1.80;;
1725;SDS011;41776;48.260;8.928;2023-02-01T09:46:19;10.40;;;3.57;;
1725;SDS011;41776;48.260;8.928;2023-02-01T09:48:49;10.47;;;2.73;;
1725;SDS011;41776;48.260;8.928;2023-02-01T09:51:22;4.03;;;2.03;;
1725;SDS011;41776;48.260;8.928;2023-02-01T09:53:55;5.43;;;1.70;;
1725;SDS011;41776;48.260;8.928;2023-02-01T09:56:28;5.90;;;2.10;;
1725;SDS011;41776;48.260;8.928;2023-02-01T09:59:01;4.83;;;2.20;;
1725;SDS011;41776;48.260;8.928;2023-02-01T10:01:35;6.17;;;2.47;;
1725;SDS011;41776;48.260;8.928;2023-02-01T10:04:04;5.17;;;1.90;;
1725;SDS011;41776;48.260;8.928;2023-02-01T10:06:35;9.40;;;2.30;;
1725;SDS011;41776;48.260;8.928;2023-02-01T10:09:15;8.23;;;2.63;;
1725;SDS011;41776;48.260;8.928;2023-02-01T10:12:00;6.73;;;1.90;;
1725;SDS011;41776;48.260;8.928;2023-02-01T10:14:53;13.37;;;2.77;;
1725;SDS011;41776;48.260;8.928;2023-02-01T10:17:31;8.00;;;2.27;;
1725;SDS011;41776;48.260;8.928;2023-02-01T10:20:16;8.03;;;2.13;;
1725;SDS011;41776;48.260;8.928;2023-02-01T10:22:54;11.03;;;2.30;;
1725;SDS011;41776;48.260;8.928;2023-02-01T10:25:31;6.93;;;2.80;;
1725;SDS011;41776;48.260;8.928;2023-02-01T10:28:01;5.73;;;2.10;;
1725;SDS011;41776;48.260;8.928;2023-02-01T10:30:31;4.60;;;2.10;;
1725;SDS011;41776;48.260;8.928;2023-02-01T10:33:07;7.87;;;2.77;;
1725;SDS011;41776;48.260;8.928;2023-02-01T10:35:41;9.67;;;2.60;;
1725;SDS011;41776;48.260;8.928;2023-02-01T10:38:15;10.47;;;3.50;;
1725;SDS011;41776;48.260;8.928;2023-02-01T10:40:52;7.93;;;2.40;;
1725;SDS011;41776;48.260;8.928;2023-02-01T10:43:21;10.33;;;2.67;;
1725;SDS011;41776;48.260;8.928;2023-02-01T10:45:47;4.83;;;2.10;;
1725;SDS011;41776;48.260;8.928;2023-02-01T10:48:14;7.03;;;2.60;;
1725;SDS011;41776;48.260;8.928;2023-02-01T10:50:44;7.67;;;2.40;;
1725;SDS011;41776;48.260;8.928;2023-02-01T10:53:17;4.60;;;2.30;;
1725;SDS011;41776;48.260;8.928;2023-02-01T10:55:48;7.60;;;2.70;;
1725;SDS011;41776;48.260;8.928;2023-02-01T10:58:16;6.63;;;2.40;;
1725;SDS011;41776;48.260;8.928;2023-02-01T11:00:45;6.87;;;2.30;;
1725;SDS011;41776;48.260;8.928;2023-02-01T11:03:21;8.20;;;2.80;;
1725;SDS011;41776;48.260;8.928;2023-02-01T11:05:56;9.77;;;2.63;;
1725;SDS011;41776;48.260;8.928;2023-02-01T11:08:25;5.03;;;2.63;;
1725;SDS011;41776;48.260;8.928;2023-02-01T11:10:56;4.37;;;2.50;;
1725;SDS011;41776;48.260;8.928;2023-02-01T11:13:28;7.43;;;2.93;;
1725;SDS011;41776;48.260;8.928;2023-02-01T11:15:58;9.03;;;3.80;;
1725;SDS011;41776;48.260;8.928;2023-02-01T11:18:25;7.37;;;2.60;;
1725;SDS011;41776;48.260;8.928;2023-02-01T11:20:54;9.10;;;2.70;;
1725;SDS011;41776;48.260;8.928;2023-02-01T11:23:21;11.37;;;4.80;;
1725;SDS011;41776;48.260;8.928;2023-02-01T11:25:52;8.03;;;2.73;;
1725;SDS011;41776;48.260;8.928;2023-02-01T11:28:21;7.30;;;2.20;;
1725;SDS011;41776;48.260;8.928;2023-02-01T11:30:49;7.30;;;2.00;;
1725;SDS011;41776;48.260;8.928;2023-02-01T11:33:19;7.80;;;3.10;;
1725;SDS011;41776;48.260;8.928;2023-02-01T11:35:52;10.43;;;3.33;;
1725;SDS011;41776;48.260;8.928;2023-02-01T11:38:20;8.00;;;2.50;;
1725;SDS011;41776;48.260;8.928;2023-02-01T11:40:48;5.43;;;2.13;;
1725;SDS011;41776;48.260;8.928;2023-02-01T11:43:19;10.07;;;2.43;;
1725;SDS011;41776;48.260;8.928;2023-02-01T11:45:56;10.83;;;2.13;;
1725;SDS011;41776;48.260;8.928;2023-02-01T11:48:25;18.03;;;3.00;;
1725;SDS011;41776;48.260;8.928;2023-02-01T11:50:57;5.63;;;2.10;;
1725;SDS011;41776;48.260;8.928;2023-02-01T11:53:37;6.87;;;2.30;;
1725;SDS011;41776;48.260;8.928;2023-02-01T11:56:18;9.13;;;3.87;;
1725;SDS011;41776;48.260;8.928;2023-02-01T11:59:19;10.23;;;2.40;;
1725;SDS011;41776;48.260;8.928;2023-02-01T12:05:07;8.30;;;2.83;;
1725;SDS011;41776;48.260;8.928;2023-02-01T12:07:51;9.60;;;2.20;;
1725;SDS011;41776;48.260;8.928;2023-02-01T12:10:31;5.70;;;1.90;;
1725;SDS011;41776;48.260;8.928;2023-02-01T12:13:09;4.93;;;2.17;;
1725;SDS011;41776;48.260;8.928;2023-02-01T12:15:51;9.87;;;2.23;;
1725;SDS011;41776;48.260;8.928;2023-02-01T12:18:38;5.67;;;1.67;;
1725;SDS011;41776;48.260;8.928;2023-02-01T12:21:19;8.00;;;2.70;;
1725;SDS011;41776;48.260;8.928;2023-02-01T12:23:58;9.20;;;2.53;;
1725;SDS011;41776;48.260;8.928;2023-02-01T12:26:47;6.77;;;2.30;;
1725;SDS011;41776;48.260;8.928;2023-02-01T12:29:26;6.97;;;2.40;;
1725;SDS011;41776;48.260;8.928;2023-02-01T12:32:17;6.70;;;2.63;;
1725;SDS011;41776;48.260;8.928;2023-02-01T12:35:09;6.53;;;2.30;;
1725;SDS011;41776;48.260;8.928;2023-02-01T12:37:52;7.57;;;3.70;;
1725;SDS011;41776;48.260;8.928;2023-02-01T12:40:36;8.00;;;1.87;;
1725;SDS011;41776;48.260;8.928;2023-02-01T12:43:14;7.83;;;2.33;;
1725;SDS011;41776;48.260;8.928;2023-02-01T12:45:47;9.43;;;2.70;;
1725;SDS011;41776;48.260;8.928;2023-02-01T12:48:25;7.43;;;2.17;;
1725;SDS011;41776;48.260;8.928;2023-02-01T12:50:55;8.03;;;2.53;;
1725;SDS011;41776;48.260;8.928;2023-02-01T12:53:27;5.37;;;2.37;;
1725;SDS011;41776;48.260;8.928;2023-02-01T12:56:00;5.63;;;1.80;;
1725;SDS011;41776;48.260;8.928;2023-02-01T12:58:32;9.67;;;2.30;;
1725;SDS011;41776;48.260;8.928;2023-02-01T13:01:05;9.53;;;2.30;;
1725;SDS011;41776;48.260;8.928;2023-02-01T13:03:38;13.90;;;2.23;;
1725;SDS011;41776;48.260;8.928;2023-02-01T13:06:09;6.73;;;1.87;;
1725;SDS011;41776;48.260;8.928;2023-02-01T13:08:41;7.47;;;2.23;;
1725;SDS011;41776;48.260;8.928;2023-02-01T13:11:13;7.13;;;1.87;;
1725;SDS011;41776;48.260;8.928;2023-02-01T13:13:49;9.97;;;2.30;;
1725;SDS011;41776;48.260;8.928;2023-02-01T13:16:23;9.43;;;2.13;;
1725;SDS011;41776;48.260;8.928;2023-02-01T13:18:59;5.83;;;1.80;;
1725;SDS011;41776;48.260;8.928;2023-02-01T13:21:31;15.37;;;2.40;;
1725;SDS011;41776;48.260;8.928;2023-02-01T13:24:01;10.53;;;3.40;;
1725;SDS011;41776;48.260;8.928;2023-02-01T13:26:28;9.30;;;3.00;;
1725;SDS011;41776;48.260;8.928;2023-02-01T13:28:56;12.90;;;3.57;;
1725;SDS011;41776;48.260;8.928;2023-02-01T13:31:32;9.57;;;2.43;;
1725;SDS011;41776;48.260;8.928;2023-02-01T13:34:32;7.53;;;2.27;;
1725;SDS011;41776;48.260;8.928;2023-02-01T13:37:17;15.20;;;2.80;;
1725;SDS011;41776;48.260;8.928;2023-02-01T13:39:59;11.23;;;2.53;;
1725;SDS011;41776;48.260;8.928;2023-02-01T13:42:45;10.10;;;2.30;;
1725;SDS011;41776;48.260;8.928;2023-02-01T13:45:14;9.37;;;2.73;;
1725;SDS011;41776;48.260;8.928;2023-02-01T13:47:44;16.70;;;4.37;;
1725;SDS011;41776;48.260;8.928;2023-02-01T13:50:19;15.97;;;5.63;;
1725;SDS011;41776;48.260;8.928;2023-02-01T13:52:51;11.87;;;3.00;;
1725;SDS011;41776;48.260;8.928;2023-02-01T13:55:26;13.93;;;3.17;;
1725;SDS011;41776;48.260;8.928;2023-02-01T13:58:00;6.23;;;2.43;;
1725;SDS011;41776;48.260;8.928;2023-02-01T14:00:31;12.40;;;2.30;;
1725;SDS011;41776;48.260;8.928;2023-02-01T14:03:02;10.03;;;2.53;;
1725;SDS011;41776;48.260;8.928;2023-02-01T14:08:41;12.13;;;2.87;;
1725;SDS011;41776;48.260;8.928;2023-02-01T14:26:02;11.13;;;3.90;;
1725;SDS011;41776;48.260;8.928;2023-02-01T14:28:35;16.63;;;4.53;;
1725;SDS011;41776;48.260;8.928;2023-02-01T14:31:16;9.90;;;3.27;;
1725;SDS011;41776;48.260;8.928;2023-02-01T14:33:59;25.50;;;7.03;;
1725;SDS011;41776;48.260;8.928;2023-02-01T14:36:38;6.80;;;2.20;;
1725;SDS011;41776;48.260;8.928;2023-02-01T14:39:22;8.77;;;2.87;;
1725;SDS011;41776;48.260;8.928;2023-02-01T14:41:53;9.03;;;2.60;;
1725;SDS011;41776;48.260;8.928;2023-02-01T14:44:24;15.03;;;2.77;;
1725;SDS011;41776;48.260;8.928;2023-02-01T14:47:06;9.27;;;2.27;;
1725;SDS011;41776;48.260;8.928;2023-02-01T14:53:14;9.57;;;2.10;;
1725;SDS011;41776;48.260;8.928;2023-02-01T14:55:47;8.33;;;2.03;;
1725;SDS011;41776;48.260;8.928;2023-02-01T14:58:18;10.87;;;2.13;;
1725;SDS011;41776;48.260;8.928;2023-02-01T15:00:52;15.37;;;3.00;;
1725;SDS011;41776;48.260;8.928;2023-02-01T15:03:33;13.57;;;3.00;;
1725;SDS011;41776;48.260;8.928;2023-02-01T15:06:13;8.67;;;2.23;;
1725;SDS011;41776;48.260;8.928;2023-02-01T15:08:48;9.13;;;2.50;;
1725;SDS011;41776;48.260;8.928;2023-02-01T15:11:16;8.27;;;2.17;;
1725;SDS011;41776;48.260;8.928;2023-02-01T15:13:47;8.67;;;2.27;;
1725;SDS011;41776;48.260;8.928;2023-02-01T15:16:15;6.40;;;1.97;;
1725;SDS011;41776;48.260;8.928;2023-02-01T15:18:43;15.10;;;4.00;;
1725;SDS011;41776;48.260;8.928;2023-02-01T15:21:14;8.03;;;1.90;;
1725;SDS011;41776;48.260;8.928;2023-02-01T15:23:43;14.30;;;2.53;;
1725;SDS011;41776;48.260;8.928;2023-02-01T15:26:25;13.17;;;2.27;;
1725;SDS011;41776;48.260;8.928;2023-02-01T15:28:52;10.93;;;1.87;;
1725;SDS011;41776;48.260;8.928;2023-02-01T15:31:31;8.20;;;2.20;;
1725;SDS011;41776;48.260;8.928;2023-02-01T15:33:59;11.97;;;1.90;;
1725;SDS011;41776;48.260;8.928;2023-02-01T15:36:25;17.73;;;2.53;;
1725;SDS011;41776;48.260;8.928;2023-02-01T15:41:47;12.03;;;3.57;;
1725;SDS011;41776;48.260;8.928;2023-02-01T15:44:18;12.93;;;2.90;;
1725;SDS011;41776;48.260;8.928;2023-02-01T15:46:53;11.50;;;2.43;;
1725;SDS011;41776;48.260;8.928;2023-02-01T15:49:22;8.43;;;1.90;;
1725;SDS011;41776;48.260;8.928;2023-02-01T15:51:52;16.50;;;3.30;;
1725;SDS011;41776;48.260;8.928;2023-02-01T15:54:22;13.13;;;2.60;;
1725;SDS011;41776;48.260;8.928;2023-02-01T15:56:55;10.13;;;2.13;;